sensor_id;sensor_type;location;lat;lon;timestamp;P1;durP1;ratioP1;P2;durP2;ratioP2
19671;SDS011;9983;51.114;13.788;2024-03-23T00:56:55;8.23;;;6.10;;
19671;SDS011;9983;51.114;13.788;2024-03-23T01:01:56;8.25;;;6.28;;
19671;SDS011;9983;51.114;13.788;2024-03-23T01:06:56;12.82;;;5.97;;
19671;SDS011;9983;51.114;13.788;2024-03-23T01:11:56;9.35;;;5.93;;
19671;SDS011;9983;51.114;13.788;2024-03-23T01:16:56;6.95;;;4.63;;
19671;SDS011;9983;51.114;13.788;2024-03-23T01:21:56;11.10;;;5.40;;
19671;SDS011;9983;51.114;13.788;2024-03-23T01:26:56;5.85;;;5.10;;
19671;SDS011;9983;51.114;13.788;2024-03-23T01:31:57;8.93;;;6.18;;
19671;SDS011;9983;51.114;13.788;2024-03-23T01:36:57;7.32;;;5.70;;
19671;SDS011;9983;51.114;13.788;2024-03-23T01:41:57;8.13;;;5.35;;
19671;SDS011;9983;51.114;13.788;2024-03-23T01:46:57;9.32;;;5.28;;
19671;SDS011;9983;51.114;13.788;2024-03-23T01:51:57;9.02;;;5.88;;
19671;SDS011;9983;51.114;13.788;2024-03-23T01:56:57;8.32;;;5.55;;
19671;SDS011;9983;51.114;13.788;2024-03-23T02:01:58;7.63;;;5.80;;
19671;SDS011;9983;51.114;13.788;2024-03-23T02:06:59;7.03;;;5.72;;
19671;SDS011;9983;51.114;13.788;2024-03-23T02:11:59;7.45;;;5.00;;
19671;SDS011;9983;51.114;13.788;2024-03-23T02:17:01;8.15;;;5.82;;
19671;SDS011;9983;51.114;13.788;2024-03-23T02:22:01;9.80;;;7.43;;
19671;SDS011;9983;51.114;13.788;2024-03-23T02:27:02;9.00;;;6.78;;
19671;SDS011;9983;51.114;13.788;2024-03-23T02:32:02;8.90;;;6.78;;
19671;SDS011;9983;51.114;13.788;2024-03-23T02:37:02;7.53;;;5.65;;
19671;SDS011;9983;51.114;13.788;2024-03-23T02:42:02;8.68;;;6.10;;
19671;SDS011;9983;51.114;13.788;2024-03-23T02:47:02;7.53;;;5.57;;
19671;SDS011;9983;51.114;13.788;2024-03-23T02:52:03;7.63;;;5.53;;
19671;SDS011;9983;51.114;13.788;2024-03-23T02:57:03;15.38;;;6.95;;
19671;SDS011;9983;51.114;13.788;2024-03-23T03:02:03;8.63;;;6.63;;
19671;SDS011;9983;51.114;13.788;2024-03-23T03:07:06;10.95;;;7.88;;
19671;SDS011;9983;51.114;13.788;2024-03-23T03:12:06;12.15;;;7.85;;
19671;SDS011;9983;51.114;13.788;2024-03-23T03:17:07;10.95;;;7.88;;
19671;SDS011;9983;51.114;13.788;2024-03-23T03:22:07;9.38;;;7.03;;
19671;SDS011;9983;51.114;13.788;2024-03-23T03:27:07;11.15;;;6.82;;
19671;SDS011;9983;51.114;13.788;2024-03-23T03:32:07;8.10;;;6.28;;
19671;SDS011;9983;51.114;13.788;2024-03-23T03:37:07;14.95;;;8.90;;
19671;SDS011;9983;51.114;13.788;2024-03-23T03:42:07;13.05;;;8.05;;
19671;SDS011;9983;51.114;13.788;2024-03-23T03:47:08;13.45;;;8.60;;
19671;SDS011;9983;51.114;13.788;2024-03-23T03:52:08;10.23;;;6.93;;
19671;SDS011;9983;51.114;13.788;2024-03-23T03:57:08;13.43;;;8.40;;
19671;SDS011;9983;51.114;13.788;2024-03-23T04:02:08;11.27;;;8.27;;
19671;SDS011;9983;51.114;13.788;2024-03-23T04:07:08;14.65;;;9.35;;
19671;SDS011;9983;51.114;13.788;2024-03-23T04:12:08;11.52;;;7.63;;
19671;SDS011;9983;51.114;13.788;2024-03-23T04:17:09;10.90;;;8.38;;
19671;SDS011;9983;51.114;13.788;2024-03-23T04:22:09;10.25;;;7.70;;
19671;SDS011;9983;51.114;13.788;2024-03-23T04:27:09;9.90;;;7.07;;
19671;SDS011;9983;51.114;13.788;2024-03-23T04:32:09;11.63;;;6.53;;
19671;SDS011;9983;51.114;13.788;2024-03-23T04:37:09;9.07;;;6.55;;
19671;SDS011;9983;51.114;13.788;2024-03-23T04:42:09;13.20;;;8.32;;
19671;SDS011;9983;51.114;13.788;2024-03-23T04:47:10;15.05;;;9.13;;
19671;SDS011;9983;51.114;13.788;2024-03-23T04:52:10;12.43;;;8.38;;
19671;SDS011;9983;51.114;13.788;2024-03-23T04:57:10;13.50;;;8.55;;
19671;SDS011;9983;51.114;13.788;2024-03-23T05:02:10;12.73;;;7.20;;
19671;SDS011;9983;51.114;13.788;2024-03-23T05:07:10;15.80;;;8.60;;
19671;SDS011;9983;51.114;13.788;2024-03-23T05:12:11;15.43;;;10.50;;
19671;SDS011;9983;51.114;13.788;2024-03-23T05:17:11;21.15;;;10.57;;
19671;SDS011;9983;51.114;13.788;2024-03-23T05:22:11;14.95;;;10.02;;
19671;SDS011;9983;51.114;13.788;2024-03-23T05:27:11;10.13;;;7.07;;
19671;SDS011;9983;51.114;13.788;2024-03-23T05:32:12;14.43;;;9.20;;
19671;SDS011;9983;51.114;13.788;2024-03-23T05:37:12;10.63;;;7.43;;
19671;SDS011;9983;51.114;13.788;2024-03-23T05:42:12;13.38;;;8.80;;
19671;SDS011;9983;51.114;13.788;2024-03-23T05:47:12;21.02;;;12.63;;
19671;SDS011;9983;51.114;13.788;2024-03-23T05:52:16;27.40;;;15.93;;
19671;SDS011;9983;51.114;13.788;2024-03-23T05:57:16;23.30;;;14.55;;
19671;SDS011;9983;51.114;13.788;2024-03-23T06:02:16;23.85;;;15.38;;
19671;SDS011;9983;51.114;13.788;2024-03-23T06:07:17;23.10;;;16.25;;
19671;SDS011;9983;51.114;13.788;2024-03-23T06:12:17;21.17;;;12.15;;
19671;SDS011;9983;51.114;13.788;2024-03-23T06:17:17;20.80;;;14.40;;
19671;SDS011;9983;51.114;13.788;2024-03-23T06:22:17;19.90;;;13.68;;
19671;SDS011;9983;51.114;13.788;2024-03-23T06:27:18;20.23;;;14.68;;
19671;SDS011;9983;51.114;13.788;2024-03-23T06:32:18;22.88;;;15.10;;
19671;SDS011;9983;51.114;13.788;2024-03-23T06:37:18;24.58;;;15.23;;
19671;SDS011;9983;51.114;13.788;2024-03-23T06:42:18;21.67;;;13.77;;
19671;SDS011;9983;51.114;13.788;2024-03-23T06:47:18;23.63;;;16.10;;
19671;SDS011;9983;51.114;13.788;2024-03-23T06:52:18;25.05;;;15.73;;
19671;SDS011;9983;51.114;13.788;2024-03-23T06:57:18;23.77;;;14.82;;
19671;SDS011;9983;51.114;13.788;2024-03-23T07:02:18;23.15;;;14.63;;
19671;SDS011;9983;51.114;13.788;2024-03-23T07:07:19;23.75;;;15.73;;
19671;SDS011;9983;51.114;13.788;2024-03-23T07:12:19;27.42;;;17.48;;
19671;SDS011;9983;51.114;13.788;2024-03-23T07:17:21;26.15;;;16.92;;
19671;SDS011;9983;51.114;13.788;2024-03-23T07:22:21;38.17;;;19.17;;
19671;SDS011;9983;51.114;13.788;2024-03-23T07:27:21;34.00;;;19.55;;
19671;SDS011;9983;51.114;13.788;2024-03-23T07:32:22;28.25;;;18.67;;
19671;SDS011;9983;51.114;13.788;2024-03-23T07:37:22;30.15;;;18.23;;
19671;SDS011;9983;51.114;13.788;2024-03-23T07:42:22;26.83;;;16.10;;
19671;SDS011;9983;51.114;13.788;2024-03-23T07:47:22;32.53;;;19.35;;
19671;SDS011;9983;51.114;13.788;2024-03-23T07:52:23;31.42;;;19.90;;
19671;SDS011;9983;51.114;13.788;2024-03-23T07:57:23;37.80;;;20.25;;
19671;SDS011;9983;51.114;13.788;2024-03-23T08:02:23;34.28;;;20.67;;
19671;SDS011;9983;51.114;13.788;2024-03-23T08:07:23;33.33;;;20.38;;
19671;SDS011;9983;51.114;13.788;2024-03-23T08:12:25;32.97;;;20.65;;
19671;SDS011;9983;51.114;13.788;2024-03-23T08:17:25;32.10;;;19.55;;
19671;SDS011;9983;51.114;13.788;2024-03-23T08:22:25;33.60;;;20.00;;
19671;SDS011;9983;51.114;13.788;2024-03-23T08:27:25;28.92;;;18.98;;
19671;SDS011;9983;51.114;13.788;2024-03-23T08:32:26;30.33;;;19.52;;
19671;SDS011;9983;51.114;13.788;2024-03-23T08:37:26;24.63;;;17.92;;
19671;SDS011;9983;51.114;13.788;2024-03-23T08:42:27;27.35;;;17.92;;
19671;SDS011;9983;51.114;13.788;2024-03-23T08:47:27;24.85;;;16.52;;
19671;SDS011;9983;51.114;13.788;2024-03-23T08:52:27;23.75;;;16.20;;
19671;SDS011;9983;51.114;13.788;2024-03-23T08:57:29;24.55;;;16.08;;
19671;SDS011;9983;51.114;13.788;2024-03-23T09:02:29;25.98;;;16.77;;
19671;SDS011;9983;51.114;13.788;2024-03-23T09:07:30;19.70;;;14.07;;
19671;SDS011;9983;51.114;13.788;2024-03-23T09:12:30;23.08;;;16.65;;
19671;SDS011;9983;51.114;13.788;2024-03-23T09:17:31;21.92;;;14.80;;
19671;SDS011;9983;51.114;13.788;2024-03-23T09:22:31;19.27;;;14.27;;
19671;SDS011;9983;51.114;13.788;2024-03-23T09:27:31;20.48;;;14.93;;
19671;SDS011;9983;51.114;13.788;2024-03-23T09:32:31;22.70;;;14.70;;
19671;SDS011;9983;51.114;13.788;2024-03-23T09:37:31;14.35;;;9.60;;
19671;SDS011;9983;51.114;13.788;2024-03-23T09:42:31;18.60;;;14.27;;
19671;SDS011;9983;51.114;13.788;2024-03-23T09:47:32;17.23;;;11.35;;
19671;SDS011;9983;51.114;13.788;2024-03-23T09:52:32;14.52;;;9.55;;
19671;SDS011;9983;51.114;13.788;2024-03-23T09:57:32;10.07;;;6.57;;
19671;SDS011;9983;51.114;13.788;2024-03-23T10:02:33;7.20;;;4.15;;
19671;SDS011;9983;51.114;13.788;2024-03-23T10:07:33;2.80;;;1.73;;
19671;SDS011;9983;51.114;13.788;2024-03-23T10:12:33;2.83;;;1.85;;
19671;SDS011;9983;51.114;13.788;2024-03-23T10:17:34;1.38;;;1.10;;
19671;SDS011;9983;51.114;13.788;2024-03-23T10:22:36;0.90;;;0.90;;
19671;SDS011;9983;51.114;13.788;2024-03-23T10:27:36;1.05;;;0.65;;
19671;SDS011;9983;51.114;13.788;2024-03-23T10:32:37;0.20;;;0.20;;
19671;SDS011;9983;51.114;13.788;2024-03-23T10:37:37;0.00;;;0.00;;
19671;SDS011;9983;51.114;13.788;2024-03-23T10:42:37;0.30;;;0.20;;
19671;SDS011;9983;51.114;13.788;2024-03-23T10:47:38;0.30;;;0.20;;
19671;SDS011;9983;51.114;13.788;2024-03-23T10:52:38;0.68;;;0.50;;
19671;SDS011;9983;51.114;13.788;2024-03-23T10:57:40;0.25;;;0.25;;
19671;SDS011;9983;51.114;13.788;2024-03-23T11:02:41;0.20;;;0.20;;
19671;SDS011;9983;51.114;13.788;2024-03-23T11:07:41;0.35;;;0.30;;
19671;SDS011;9983;51.114;13.788;2024-03-23T11:12:49;0.10;;;0.10;;
19671;SDS011;9983;51.114;13.788;2024-03-23T11:18:02;0.40;;;0.40;;
19671;SDS011;9983;51.114;13.788;2024-03-23T11:23:02;0.25;;;0.25;;
19671;SDS011;9983;51.114;13.788;2024-03-23T11:28:10;0.43;;;0.43;;
19671;SDS011;9983;51.114;13.788;2024-03-23T11:33:11;2.25;;;0.73;;
19671;SDS011;9983;51.114;13.788;2024-03-23T11:38:12;0.10;;;0.10;;
19671;SDS011;9983;51.114;13.788;2024-03-23T11:43:13;0.22;;;0.22;;
19671;SDS011;9983;51.114;13.788;2024-03-23T11:48:15;0.10;;;0.10;;
19671;SDS011;9983;51.114;13.788;2024-03-23T11:53:18;0.20;;;0.20;;
19671;SDS011;9983;51.114;13.788;2024-03-23T11:58:19;0.40;;;0.40;;
19671;SDS011;9983;51.114;13.788;2024-03-23T12:03:19;0.35;;;0.32;;
19671;SDS011;9983;51.114;13.788;2024-03-23T12:13:22;1.65;;;0.82;;
19671;SDS011;9983;51.114;13.788;2024-03-23T12:18:25;0.98;;;0.90;;
19671;SDS011;9983;51.114;13.788;2024-03-23T12:23:25;0.80;;;0.80;;
19671;SDS011;9983;51.114;13.788;2024-03-23T12:28:25;0.65;;;0.63;;
19671;SDS011;9983;51.114;13.788;2024-03-23T12:33:25;0.60;;;0.60;;
19671;SDS011;9983;51.114;13.788;2024-03-23T12:38:26;0.98;;;0.70;;
19671;SDS011;9983;51.114;13.788;2024-03-23T12:43:26;0.80;;;0.80;;
19671;SDS011;9983;51.114;13.788;2024-03-23T12:48:26;1.15;;;1.10;;
19671;SDS011;9983;51.114;13.788;2024-03-23T12:53:26;0.88;;;0.88;;
19671;SDS011;9983;51.114;13.788;2024-03-23T12:58:26;0.70;;;0.70;;
19671;SDS011;9983;51.114;13.788;2024-03-23T13:03:26;1.20;;;1.10;;
19671;SDS011;9983;51.114;13.788;2024-03-23T13:08:26;1.52;;;1.42;;
19671;SDS011;9983;51.114;13.788;2024-03-23T13:13:27;1.90;;;1.80;;
19671;SDS011;9983;51.114;13.788;2024-03-23T13:18:27;1.85;;;1.33;;
19671;SDS011;9983;51.114;13.788;2024-03-23T13:23:27;2.17;;;2.08;;
19671;SDS011;9983;51.114;13.788;2024-03-23T13:28:27;2.65;;;1.77;;
19671;SDS011;9983;51.114;13.788;2024-03-23T13:33:27;1.70;;;1.52;;
19671;SDS011;9983;51.114;13.788;2024-03-23T13:38:27;1.02;;;0.98;;
19671;SDS011;9983;51.114;13.788;2024-03-23T13:43:28;2.67;;;1.80;;
19671;SDS011;9983;51.114;13.788;2024-03-23T13:48:28;3.95;;;1.70;;
19671;SDS011;9983;51.114;13.788;2024-03-23T13:53:29;2.22;;;1.67;;
19671;SDS011;9983;51.114;13.788;2024-03-23T13:58:29;2.13;;;1.38;;
19671;SDS011;9983;51.114;13.788;2024-03-23T14:03:29;1.33;;;1.23;;
19671;SDS011;9983;51.114;13.788;2024-03-23T14:08:29;1.63;;;1.52;;
19671;SDS011;9983;51.114;13.788;2024-03-23T14:13:33;1.95;;;1.42;;
19671;SDS011;9983;51.114;13.788;2024-03-23T14:18:33;1.40;;;1.30;;
19671;SDS011;9983;51.114;13.788;2024-03-23T14:23:33;1.65;;;1.40;;
19671;SDS011;9983;51.114;13.788;2024-03-23T14:28:33;3.30;;;1.60;;
19671;SDS011;9983;51.114;13.788;2024-03-23T14:33:34;1.42;;;1.20;;
19671;SDS011;9983;51.114;13.788;2024-03-23T14:38:34;2.47;;;1.50;;
19671;SDS011;9983;51.114;13.788;2024-03-23T14:43:34;5.63;;;1.90;;
19671;SDS011;9983;51.114;13.788;2024-03-23T14:48:34;3.50;;;1.40;;
19671;SDS011;9983;51.114;13.788;2024-03-23T14:53:35;1.85;;;1.13;;
19671;SDS011;9983;51.114;13.788;2024-03-23T14:58:36;3.70;;;1.50;;
19671;SDS011;9983;51.114;13.788;2024-03-23T15:03:36;3.03;;;1.30;;
19671;SDS011;9983;51.114;13.788;2024-03-23T15:08:38;3.25;;;1.42;;
19671;SDS011;9983;51.114;13.788;2024-03-23T15:13:40;4.00;;;1.45;;
19671;SDS011;9983;51.114;13.788;2024-03-23T15:18:40;1.75;;;1.58;;
19671;SDS011;9983;51.114;13.788;2024-03-23T15:23:40;5.05;;;1.77;;
19671;SDS011;9983;51.114;13.788;2024-03-23T15:28:43;1.63;;;1.52;;
19671;SDS011;9983;51.114;13.788;2024-03-23T15:34:09;2.50;;;1.73;;
19671;SDS011;9983;51.114;13.788;2024-03-23T15:39:10;4.32;;;2.20;;
19671;SDS011;9983;51.114;13.788;2024-03-23T15:44:10;2.97;;;1.63;;
19671;SDS011;9983;51.114;13.788;2024-03-23T15:49:10;3.92;;;1.80;;
19671;SDS011;9983;51.114;13.788;2024-03-23T15:54:10;4.18;;;1.83;;
19671;SDS011;9983;51.114;13.788;2024-03-23T15:59:11;2.15;;;1.67;;
19671;SDS011;9983;51.114;13.788;2024-03-23T16:04:11;4.60;;;1.77;;
19671;SDS011;9983;51.114;13.788;2024-03-23T16:09:12;2.42;;;1.73;;
19671;SDS011;9983;51.114;13.788;2024-03-23T16:14:14;3.63;;;1.90;;
19671;SDS011;9983;51.114;13.788;2024-03-23T16:19:14;3.70;;;2.33;;
19671;SDS011;9983;51.114;13.788;2024-03-23T16:24:14;3.75;;;2.35;;
19671;SDS011;9983;51.114;13.788;2024-03-23T16:29:14;5.25;;;2.70;;
19671;SDS011;9983;51.114;13.788;2024-03-23T16:34:14;3.42;;;2.50;;
19671;SDS011;9983;51.114;13.788;2024-03-23T16:39:14;3.58;;;2.90;;
19671;SDS011;9983;51.114;13.788;2024-03-23T16:44:15;5.93;;;3.60;;
19671;SDS011;9983;51.114;13.788;2024-03-23T16:49:15;4.18;;;2.70;;
19671;SDS011;9983;51.114;13.788;2024-03-23T16:54:15;6.43;;;2.40;;
19671;SDS011;9983;51.114;13.788;2024-03-23T16:59:15;4.97;;;2.45;;
19671;SDS011;9983;51.114;13.788;2024-03-23T17:04:15;7.15;;;3.80;;
19671;SDS011;9983;51.114;13.788;2024-03-23T17:09:16;8.40;;;4.75;;
19671;SDS011;9983;51.114;13.788;2024-03-23T17:14:16;3.72;;;2.78;;
19671;SDS011;9983;51.114;13.788;2024-03-23T17:19:16;2.65;;;2.45;;
19671;SDS011;9983;51.114;13.788;2024-03-23T17:24:16;4.07;;;2.42;;
19671;SDS011;9983;51.114;13.788;2024-03-23T17:29:16;3.28;;;2.55;;
19671;SDS011;9983;51.114;13.788;2024-03-23T17:34:16;3.92;;;2.70;;
19671;SDS011;9983;51.114;13.788;2024-03-23T17:39:16;3.83;;;2.88;;
19671;SDS011;9983;51.114;13.788;2024-03-23T17:44:17;5.35;;;2.88;;
19671;SDS011;9983;51.114;13.788;2024-03-23T17:49:17;3.63;;;2.80;;
19671;SDS011;9983;51.114;13.788;2024-03-23T17:54:17;3.13;;;2.53;;
19671;SDS011;9983;51.114;13.788;2024-03-23T17:59:22;4.47;;;2.38;;
19671;SDS011;9983;51.114;13.788;2024-03-23T18:04:22;3.67;;;2.45;;
19671;SDS011;9983;51.114;13.788;2024-03-23T18:09:22;3.90;;;2.70;;
19671;SDS011;9983;51.114;13.788;2024-03-23T18:14:22;4.13;;;2.80;;
19671;SDS011;9983;51.114;13.788;2024-03-23T18:19:23;5.88;;;2.63;;
19671;SDS011;9983;51.114;13.788;2024-03-23T18:24:23;3.95;;;2.70;;
19671;SDS011;9983;51.114;13.788;2024-03-23T18:29:24;3.13;;;2.83;;
19671;SDS011;9983;51.114;13.788;2024-03-23T18:34:24;4.47;;;2.75;;
19671;SDS011;9983;51.114;13.788;2024-03-23T18:39:24;3.80;;;2.72;;
19671;SDS011;9983;51.114;13.788;2024-03-23T18:44:24;5.00;;;3.50;;
19671;SDS011;9983;51.114;13.788;2024-03-23T18:49:24;5.03;;;2.92;;
19671;SDS011;9983;51.114;13.788;2024-03-23T18:54:24;4.60;;;3.22;;
19671;SDS011;9983;51.114;13.788;2024-03-23T18:59:24;4.10;;;3.30;;
19671;SDS011;9983;51.114;13.788;2024-03-23T19:04:25;3.83;;;3.13;;
19671;SDS011;9983;51.114;13.788;2024-03-23T19:09:25;4.15;;;3.25;;
19671;SDS011;9983;51.114;13.788;2024-03-23T19:14:25;4.32;;;3.08;;
19671;SDS011;9983;51.114;13.788;2024-03-23T19:19:25;6.25;;;3.20;;
19671;SDS011;9983;51.114;13.788;2024-03-23T19:24:25;4.57;;;3.30;;
19671;SDS011;9983;51.114;13.788;2024-03-23T19:29:27;7.55;;;5.03;;
19671;SDS011;9983;51.114;13.788;2024-03-23T19:34:27;8.18;;;4.78;;
19671;SDS011;9983;51.114;13.788;2024-03-23T19:39:27;5.60;;;4.15;;
19671;SDS011;9983;51.114;13.788;2024-03-23T19:44:27;8.30;;;3.63;;
19671;SDS011;9983;51.114;13.788;2024-03-23T19:49:27;3.97;;;3.38;;
19671;SDS011;9983;51.114;13.788;2024-03-23T19:54:27;9.32;;;3.65;;
19671;SDS011;9983;51.114;13.788;2024-03-23T19:59:27;3.13;;;2.83;;
19671;SDS011;9983;51.114;13.788;2024-03-23T20:04:28;4.75;;;3.38;;
19671;SDS011;9983;51.114;13.788;2024-03-23T20:09:28;5.15;;;3.45;;
19671;SDS011;9983;51.114;13.788;2024-03-23T20:14:29;4.57;;;3.60;;
19671;SDS011;9983;51.114;13.788;2024-03-23T20:19:29;4.93;;;3.22;;
19671;SDS011;9983;51.114;13.788;2024-03-23T20:24:29;5.57;;;3.28;;
19671;SDS011;9983;51.114;13.788;2024-03-23T20:29:30;4.38;;;2.92;;
19671;SDS011;9983;51.114;13.788;2024-03-23T20:34:30;3.40;;;3.08;;
19671;SDS011;9983;51.114;13.788;2024-03-23T20:39:30;6.15;;;2.83;;
19671;SDS011;9983;51.114;13.788;2024-03-23T20:44:31;4.75;;;3.08;;
19671;SDS011;9983;51.114;13.788;2024-03-23T20:49:31;5.15;;;3.55;;
19671;SDS011;9983;51.114;13.788;2024-03-23T20:54:31;5.15;;;3.22;;
19671;SDS011;9983;51.114;13.788;2024-03-23T20:59:31;5.38;;;3.40;;
19671;SDS011;9983;51.114;13.788;2024-03-23T21:04:31;4.60;;;2.72;;
19671;SDS011;9983;51.114;13.788;2024-03-23T21:09:32;4.30;;;3.10;;
19671;SDS011;9983;51.114;13.788;2024-03-23T21:14:32;5.68;;;3.38;;
19671;SDS011;9983;51.114;13.788;2024-03-23T21:19:32;5.03;;;3.45;;
19671;SDS011;9983;51.114;13.788;2024-03-23T21:24:34;6.30;;;2.92;;
19671;SDS011;9983;51.114;13.788;2024-03-23T21:29:34;6.30;;;3.17;;
19671;SDS011;9983;51.114;13.788;2024-03-23T21:34:34;6.75;;;3.13;;
19671;SDS011;9983;51.114;13.788;2024-03-23T21:39:34;3.28;;;2.97;;
19671;SDS011;9983;51.114;13.788;2024-03-23T21:44:34;4.60;;;2.42;;
19671;SDS011;9983;51.114;13.788;2024-03-23T21:49:36;6.30;;;2.55;;
19671;SDS011;9983;51.114;13.788;2024-03-23T21:54:36;2.95;;;2.65;;
19671;SDS011;9983;51.114;13.788;2024-03-23T21:59:37;2.20;;;2.00;;
19671;SDS011;9983;51.114;13.788;2024-03-23T22:04:37;5.60;;;3.17;;
19671;SDS011;9983;51.114;13.788;2024-03-23T22:09:37;2.83;;;2.53;;
19671;SDS011;9983;51.114;13.788;2024-03-23T22:14:37;2.90;;;2.40;;
19671;SDS011;9983;51.114;13.788;2024-03-23T22:19:37;2.47;;;1.80;;
19671;SDS011;9983;51.114;13.788;2024-03-23T22:24:37;2.47;;;2.28;;
19671;SDS011;9983;51.114;13.788;2024-03-23T22:29:37;4.55;;;2.50;;
19671;SDS011;9983;51.114;13.788;2024-03-23T22:34:38;2.97;;;2.13;;
19671;SDS011;9983;51.114;13.788;2024-03-23T22:39:40;2.60;;;2.13;;
19671;SDS011;9983;51.114;13.788;2024-03-23T22:44:41;3.85;;;2.50;;
19671;SDS011;9983;51.114;13.788;2024-03-23T22:49:41;3.58;;;2.15;;
19671;SDS011;9983;51.114;13.788;2024-03-23T22:54:41;4.10;;;2.35;;
19671;SDS011;9983;51.114;13.788;2024-03-23T22:59:41;4.10;;;2.25;;
19671;SDS011;9983;51.114;13.788;2024-03-23T23:04:41;3.67;;;2.13;;
19671;SDS011;9983;51.114;13.788;2024-03-23T23:09:42;2.78;;;2.22;;
19671;SDS011;9983;51.114;13.788;2024-03-23T23:14:42;3.55;;;2.03;;
19671;SDS011;9983;51.114;13.788;2024-03-23T23:19:42;3.97;;;2.58;;
19671;SDS011;9983;51.114;13.788;2024-03-23T23:24:42;2.78;;;2.35;;
19671;SDS011;9983;51.114;13.788;2024-03-23T23:29:42;2.03;;;1.73;;
19671;SDS011;9983;51.114;13.788;2024-03-23T23:34:42;2.05;;;1.52;;
19671;SDS011;9983;51.114;13.788;2024-03-23T23:39:42;1.33;;;1.17;;
19671;SDS011;9983;51.114;13.788;2024-03-23T23:44:43;1.83;;;1.73;;
19671;SDS011;9983;51.114;13.788;2024-03-23T23:49:43;1.55;;;1.13;;
19671;SDS011;9983;51.114;13.788;2024-03-23T23:54:43;3.85;;;1.27;;
19671;SDS011;9983;51.114;13.788;2024-03-23T23:59:43;3.83;;;1.65;;
